KVCT/VCT METAR and TAF weather

Enter ICAO airport designator
Station Type Date Time Source
KVCT METAR 2020/09/21 23:51 UTC NOAA

KVCT 212351Z 35014G22KT 10SM OVC009 23/21 A2981 RMK AO2 RAE2258B32E42 SLP094 P0000 60003 T02280211 10228 20222 55005


Station Type Date Time Source
KVCT Decoded METAR 2020/09/21 23:51 UTC NOAA

VICTORIA REGIONAL AIRPORT, TX, United States (KVCT) 28-52N 96-56W 31M
Sep 21, 2020 - 07:51 PM EDT / 2020.09.21 2351 UTC
Wind: from the N (350 degrees) at 16 MPH (14 KT) gusting to 25 MPH (22 KT):0
Visibility: 10 mile(s):0
Sky conditions: overcast
Precipitation last hour: A trace
Temperature: 73.0 F (22.8 C)
Dew Point: 70.0 F (21.1 C)
Relative Humidity: 90%
Pressure (altimeter): 29.81 in. Hg (1009 hPa)
Pressure tendency: 0.01 inches (0.5 hPa) lower than three hours ago
ob: KVCT 212351Z 35014G22KT 10SM OVC009 23/21 A2981 RMK AO2 RAE2258B32E42 SLP094 P0000 60003 T02280211 10228 20222 55005
cycle: 0

Station Type Date Time Source
KVCT TAF 2020/09/21 18:42 UTC NOAA

TAF KVCT 211739Z 2118/2218 36014G24KT 5SM -SHRA BR OVC008
TEMPO 2118/2122 36022G32KT 2SM +SHRA OVC005
FM212200 36016G26KT 4SM SHRA BR OVC008
TEMPO 2122/2202 2SM +SHRA OVC005
FM220200 36018G28KT 4SM SHRA OVC005
TEMPO 2202/2206 34022G32KT 2SM +SHRA
FM220600 01020G30KT 2SM +SHRA OVC004
FM221400 01015G22KT 4SM -SHRA OVC006

Example: see airport list